Evesham Township, New Jersey
Current Conditions -  °F | °C
As of 11:54 AM on Saturday 25 Oct 2014 (Local Time) from KVAY Reporting Station
Clear Clear  
Wind Chill: 64°   Ceiling: Unl
Heat Index: 64°   Visibility: 10mi
Dew Point: 42°   Wind: 8mph
Humidity: 45%   Direction: 270°W
Pressure: 29.85"   Gusts: NA
Location:  39.8786°N, 74.8969°W
Report Text: KVAY 251554Z AUTO 27007KT 10SM CLR 18/06 A2985 RMK AO2 SLP108 T01780056
Loading
Personal Weather Stations






























Interactive Weather Map
Tropical Storm Tracking
New forecast layout! Learn more

10-Day Weather Forecast

Advertisements
Track Severe Weather on mobile